sensor_id;sensor_type;location;lat;lon;timestamp;P1;durP1;ratioP1;P2;durP2;ratioP2
2031;SDS011;27625;50.422;7.944;2022-07-06T00:02:34;5.13;;;3.07;;
2031;SDS011;27625;50.422;7.944;2022-07-06T00:05:00;6.33;;;3.43;;
2031;SDS011;27625;50.422;7.944;2022-07-06T00:07:26;4.37;;;2.80;;
2031;SDS011;27625;50.422;7.944;2022-07-06T00:09:51;6.83;;;3.30;;
2031;SDS011;27625;50.422;7.944;2022-07-06T00:12:17;3.97;;;2.80;;
2031;SDS011;27625;50.422;7.944;2022-07-06T00:14:44;5.70;;;2.40;;
2031;SDS011;27625;50.422;7.944;2022-07-06T00:17:10;3.60;;;2.60;;
2031;SDS011;27625;50.422;7.944;2022-07-06T00:19:38;5.30;;;2.70;;
2031;SDS011;27625;50.422;7.944;2022-07-06T00:22:04;5.17;;;2.77;;
2031;SDS011;27625;50.422;7.944;2022-07-06T00:24:31;4.33;;;2.87;;
2031;SDS011;27625;50.422;7.944;2022-07-06T00:26:57;4.40;;;2.93;;
2031;SDS011;27625;50.422;7.944;2022-07-06T00:29:24;6.10;;;3.07;;
2031;SDS011;27625;50.422;7.944;2022-07-06T00:31:51;5.27;;;3.03;;
2031;SDS011;27625;50.422;7.944;2022-07-06T00:34:17;5.37;;;3.20;;
2031;SDS011;27625;50.422;7.944;2022-07-06T00:36:45;4.73;;;3.10;;
2031;SDS011;27625;50.422;7.944;2022-07-06T00:39:11;3.97;;;2.67;;
2031;SDS011;27625;50.422;7.944;2022-07-06T00:41:38;4.23;;;3.10;;
2031;SDS011;27625;50.422;7.944;2022-07-06T00:44:06;5.27;;;2.90;;
2031;SDS011;27625;50.422;7.944;2022-07-06T00:46:33;5.53;;;2.87;;
2031;SDS011;27625;50.422;7.944;2022-07-06T00:49:00;4.90;;;2.93;;
2031;SDS011;27625;50.422;7.944;2022-07-06T00:51:28;6.20;;;3.43;;
2031;SDS011;27625;50.422;7.944;2022-07-06T00:53:57;4.50;;;3.07;;
2031;SDS011;27625;50.422;7.944;2022-07-06T00:56:25;7.53;;;2.80;;
2031;SDS011;27625;50.422;7.944;2022-07-06T00:58:53;4.03;;;2.60;;
2031;SDS011;27625;50.422;7.944;2022-07-06T01:01:20;4.20;;;2.70;;
2031;SDS011;27625;50.422;7.944;2022-07-06T01:03:46;4.00;;;2.73;;
2031;SDS011;27625;50.422;7.944;2022-07-06T01:06:12;7.33;;;2.70;;
2031;SDS011;27625;50.422;7.944;2022-07-06T01:08:39;4.17;;;2.90;;
2031;SDS011;27625;50.422;7.944;2022-07-06T01:11:07;4.73;;;3.27;;
2031;SDS011;27625;50.422;7.944;2022-07-06T01:13:33;5.03;;;2.87;;
2031;SDS011;27625;50.422;7.944;2022-07-06T01:16:00;6.33;;;3.00;;
2031;SDS011;27625;50.422;7.944;2022-07-06T01:18:27;4.90;;;3.20;;
2031;SDS011;27625;50.422;7.944;2022-07-06T01:21:05;4.63;;;3.20;;
2031;SDS011;27625;50.422;7.944;2022-07-06T01:23:38;5.27;;;3.47;;
2031;SDS011;27625;50.422;7.944;2022-07-06T01:26:05;4.33;;;2.80;;
2031;SDS011;27625;50.422;7.944;2022-07-06T01:28:31;5.23;;;3.10;;
2031;SDS011;27625;50.422;7.944;2022-07-06T01:30:58;3.70;;;2.73;;
2031;SDS011;27625;50.422;7.944;2022-07-06T01:33:24;3.83;;;2.87;;
2031;SDS011;27625;50.422;7.944;2022-07-06T01:35:52;8.27;;;3.40;;
2031;SDS011;27625;50.422;7.944;2022-07-06T01:38:21;7.80;;;3.43;;
2031;SDS011;27625;50.422;7.944;2022-07-06T01:40:47;6.20;;;3.03;;
2031;SDS011;27625;50.422;7.944;2022-07-06T01:43:14;5.17;;;3.37;;
2031;SDS011;27625;50.422;7.944;2022-07-06T01:45:40;4.77;;;3.03;;
2031;SDS011;27625;50.422;7.944;2022-07-06T01:48:07;5.50;;;3.10;;
2031;SDS011;27625;50.422;7.944;2022-07-06T01:50:34;4.50;;;3.30;;
2031;SDS011;27625;50.422;7.944;2022-07-06T01:53:01;8.97;;;3.63;;
2031;SDS011;27625;50.422;7.944;2022-07-06T01:55:28;7.03;;;4.00;;
2031;SDS011;27625;50.422;7.944;2022-07-06T01:57:55;6.30;;;3.53;;
2031;SDS011;27625;50.422;7.944;2022-07-06T02:00:21;5.10;;;3.30;;
2031;SDS011;27625;50.422;7.944;2022-07-06T02:02:48;6.67;;;3.50;;
2031;SDS011;27625;50.422;7.944;2022-07-06T02:05:14;4.83;;;2.87;;
2031;SDS011;27625;50.422;7.944;2022-07-06T02:07:41;5.30;;;4.07;;
2031;SDS011;27625;50.422;7.944;2022-07-06T02:10:08;4.70;;;3.30;;
2031;SDS011;27625;50.422;7.944;2022-07-06T02:12:39;5.73;;;3.43;;
2031;SDS011;27625;50.422;7.944;2022-07-06T02:15:06;6.90;;;3.50;;
2031;SDS011;27625;50.422;7.944;2022-07-06T02:17:33;7.67;;;4.27;;
2031;SDS011;27625;50.422;7.944;2022-07-06T02:20:00;6.87;;;3.67;;
2031;SDS011;27625;50.422;7.944;2022-07-06T02:22:26;4.30;;;3.37;;
2031;SDS011;27625;50.422;7.944;2022-07-06T02:24:53;8.23;;;4.30;;
2031;SDS011;27625;50.422;7.944;2022-07-06T02:27:20;6.30;;;4.00;;
2031;SDS011;27625;50.422;7.944;2022-07-06T02:29:48;5.87;;;3.80;;
2031;SDS011;27625;50.422;7.944;2022-07-06T02:32:15;4.50;;;3.60;;
2031;SDS011;27625;50.422;7.944;2022-07-06T02:34:41;6.97;;;3.70;;
2031;SDS011;27625;50.422;7.944;2022-07-06T02:37:08;7.10;;;4.30;;
2031;SDS011;27625;50.422;7.944;2022-07-06T02:39:35;6.30;;;4.27;;
2031;SDS011;27625;50.422;7.944;2022-07-06T02:42:01;5.23;;;3.97;;
2031;SDS011;27625;50.422;7.944;2022-07-06T02:44:28;6.60;;;4.83;;
2031;SDS011;27625;50.422;7.944;2022-07-06T02:46:56;8.03;;;4.20;;
2031;SDS011;27625;50.422;7.944;2022-07-06T02:49:22;5.90;;;4.03;;
2031;SDS011;27625;50.422;7.944;2022-07-06T02:51:49;6.07;;;3.83;;
2031;SDS011;27625;50.422;7.944;2022-07-06T02:54:15;5.03;;;3.70;;
2031;SDS011;27625;50.422;7.944;2022-07-06T02:56:42;5.60;;;4.57;;
2031;SDS011;27625;50.422;7.944;2022-07-06T02:59:09;6.50;;;4.20;;
2031;SDS011;27625;50.422;7.944;2022-07-06T03:01:40;5.63;;;3.80;;
2031;SDS011;27625;50.422;7.944;2022-07-06T03:04:20;8.10;;;3.70;;
2031;SDS011;27625;50.422;7.944;2022-07-06T03:06:47;5.47;;;3.93;;
2031;SDS011;27625;50.422;7.944;2022-07-06T03:09:13;6.93;;;3.70;;
2031;SDS011;27625;50.422;7.944;2022-07-06T03:11:39;6.27;;;3.43;;
2031;SDS011;27625;50.422;7.944;2022-07-06T03:14:06;5.80;;;4.37;;
2031;SDS011;27625;50.422;7.944;2022-07-06T03:16:32;6.33;;;3.63;;
2031;SDS011;27625;50.422;7.944;2022-07-06T03:18:59;6.53;;;3.90;;
2031;SDS011;27625;50.422;7.944;2022-07-06T03:21:27;4.07;;;3.67;;
2031;SDS011;27625;50.422;7.944;2022-07-06T03:23:53;5.93;;;3.73;;
2031;SDS011;27625;50.422;7.944;2022-07-06T03:29:17;7.20;;;4.30;;
2031;SDS011;27625;50.422;7.944;2022-07-06T03:31:43;9.53;;;4.03;;
2031;SDS011;27625;50.422;7.944;2022-07-06T03:34:10;7.90;;;4.20;;
2031;SDS011;27625;50.422;7.944;2022-07-06T03:36:36;5.30;;;4.03;;
2031;SDS011;27625;50.422;7.944;2022-07-06T03:39:03;4.70;;;3.50;;
2031;SDS011;27625;50.422;7.944;2022-07-06T03:41:30;7.23;;;4.67;;
2031;SDS011;27625;50.422;7.944;2022-07-06T03:43:57;5.40;;;4.13;;
2031;SDS011;27625;50.422;7.944;2022-07-06T03:46:25;6.60;;;5.00;;
2031;SDS011;27625;50.422;7.944;2022-07-06T03:48:51;5.10;;;4.13;;
2031;SDS011;27625;50.422;7.944;2022-07-06T03:51:18;8.60;;;5.17;;
2031;SDS011;27625;50.422;7.944;2022-07-06T03:53:44;7.10;;;4.43;;
2031;SDS011;27625;50.422;7.944;2022-07-06T03:56:11;6.97;;;4.40;;
2031;SDS011;27625;50.422;7.944;2022-07-06T03:58:58;6.17;;;4.53;;
2031;SDS011;27625;50.422;7.944;2022-07-06T04:01:27;6.37;;;4.40;;
2031;SDS011;27625;50.422;7.944;2022-07-06T04:03:54;8.43;;;4.70;;
2031;SDS011;27625;50.422;7.944;2022-07-06T04:06:21;6.00;;;4.43;;
2031;SDS011;27625;50.422;7.944;2022-07-06T04:08:48;7.30;;;4.40;;
2031;SDS011;27625;50.422;7.944;2022-07-06T04:11:15;5.17;;;4.40;;
2031;SDS011;27625;50.422;7.944;2022-07-06T04:13:41;7.37;;;4.77;;
2031;SDS011;27625;50.422;7.944;2022-07-06T04:16:08;5.83;;;3.90;;
2031;SDS011;27625;50.422;7.944;2022-07-06T04:18:36;7.53;;;4.90;;
2031;SDS011;27625;50.422;7.944;2022-07-06T04:21:03;8.53;;;4.60;;
2031;SDS011;27625;50.422;7.944;2022-07-06T04:23:29;5.63;;;4.20;;
2031;SDS011;27625;50.422;7.944;2022-07-06T04:25:56;8.30;;;4.70;;
2031;SDS011;27625;50.422;7.944;2022-07-06T04:28:23;5.77;;;4.20;;
2031;SDS011;27625;50.422;7.944;2022-07-06T04:30:50;7.20;;;4.80;;
2031;SDS011;27625;50.422;7.944;2022-07-06T04:33:16;7.93;;;4.17;;
2031;SDS011;27625;50.422;7.944;2022-07-06T04:35:44;8.33;;;5.40;;
2031;SDS011;27625;50.422;7.944;2022-07-06T04:38:10;6.00;;;4.77;;
2031;SDS011;27625;50.422;7.944;2022-07-06T04:40:37;6.03;;;4.53;;
2031;SDS011;27625;50.422;7.944;2022-07-06T04:43:04;11.83;;;5.13;;
2031;SDS011;27625;50.422;7.944;2022-07-06T04:45:30;7.87;;;5.67;;
2031;SDS011;27625;50.422;7.944;2022-07-06T04:47:57;8.80;;;5.10;;
2031;SDS011;27625;50.422;7.944;2022-07-06T04:50:24;9.27;;;4.90;;
2031;SDS011;27625;50.422;7.944;2022-07-06T04:52:52;9.77;;;5.30;;
2031;SDS011;27625;50.422;7.944;2022-07-06T04:55:18;9.47;;;4.47;;
2031;SDS011;27625;50.422;7.944;2022-07-06T04:57:47;8.23;;;4.70;;
2031;SDS011;27625;50.422;7.944;2022-07-06T05:00:16;8.07;;;6.00;;
2031;SDS011;27625;50.422;7.944;2022-07-06T05:02:43;7.33;;;4.57;;
2031;SDS011;27625;50.422;7.944;2022-07-06T05:05:10;6.13;;;4.53;;
2031;SDS011;27625;50.422;7.944;2022-07-06T05:07:37;8.00;;;4.80;;
2031;SDS011;27625;50.422;7.944;2022-07-06T05:10:06;6.47;;;4.63;;
2031;SDS011;27625;50.422;7.944;2022-07-06T05:12:34;6.90;;;4.83;;
2031;SDS011;27625;50.422;7.944;2022-07-06T05:15:00;6.80;;;4.60;;
2031;SDS011;27625;50.422;7.944;2022-07-06T05:17:27;6.10;;;4.27;;
2031;SDS011;27625;50.422;7.944;2022-07-06T05:19:53;5.80;;;4.50;;
2031;SDS011;27625;50.422;7.944;2022-07-06T05:22:20;9.97;;;4.87;;
2031;SDS011;27625;50.422;7.944;2022-07-06T05:24:47;6.10;;;4.77;;
2031;SDS011;27625;50.422;7.944;2022-07-06T05:27:15;6.30;;;4.33;;
2031;SDS011;27625;50.422;7.944;2022-07-06T05:29:44;5.53;;;4.47;;
2031;SDS011;27625;50.422;7.944;2022-07-06T05:32:11;7.37;;;4.50;;
2031;SDS011;27625;50.422;7.944;2022-07-06T05:34:37;5.90;;;3.93;;
2031;SDS011;27625;50.422;7.944;2022-07-06T05:37:05;6.20;;;4.53;;
2031;SDS011;27625;50.422;7.944;2022-07-06T05:39:31;7.13;;;4.30;;
2031;SDS011;27625;50.422;7.944;2022-07-06T05:41:58;7.20;;;4.40;;
2031;SDS011;27625;50.422;7.944;2022-07-06T05:44:26;5.43;;;4.10;;
2031;SDS011;27625;50.422;7.944;2022-07-06T05:46:52;7.83;;;4.47;;
2031;SDS011;27625;50.422;7.944;2022-07-06T05:49:40;5.20;;;3.60;;
2031;SDS011;27625;50.422;7.944;2022-07-06T05:52:24;6.83;;;4.00;;
2031;SDS011;27625;50.422;7.944;2022-07-06T05:54:50;7.90;;;4.30;;
2031;SDS011;27625;50.422;7.944;2022-07-06T05:57:19;7.03;;;4.97;;
2031;SDS011;27625;50.422;7.944;2022-07-06T05:59:47;6.20;;;4.27;;
2031;SDS011;27625;50.422;7.944;2022-07-06T06:02:20;4.60;;;3.57;;
2031;SDS011;27625;50.422;7.944;2022-07-06T06:04:47;12.13;;;4.60;;
2031;SDS011;27625;50.422;7.944;2022-07-06T06:07:14;6.70;;;4.30;;
2031;SDS011;27625;50.422;7.944;2022-07-06T06:09:40;6.30;;;4.00;;
2031;SDS011;27625;50.422;7.944;2022-07-06T06:12:09;5.47;;;4.00;;
2031;SDS011;27625;50.422;7.944;2022-07-06T06:14:36;5.70;;;3.90;;
2031;SDS011;27625;50.422;7.944;2022-07-06T06:17:04;4.57;;;3.60;;
2031;SDS011;27625;50.422;7.944;2022-07-06T06:19:34;4.60;;;3.50;;
2031;SDS011;27625;50.422;7.944;2022-07-06T06:22:01;7.30;;;4.07;;
2031;SDS011;27625;50.422;7.944;2022-07-06T06:24:29;6.87;;;4.07;;
2031;SDS011;27625;50.422;7.944;2022-07-06T06:26:55;6.53;;;4.50;;
2031;SDS011;27625;50.422;7.944;2022-07-06T06:29:22;7.83;;;4.10;;
2031;SDS011;27625;50.422;7.944;2022-07-06T06:31:49;5.63;;;4.37;;
2031;SDS011;27625;50.422;7.944;2022-07-06T06:34:17;6.87;;;3.97;;
2031;SDS011;27625;50.422;7.944;2022-07-06T06:36:43;8.47;;;3.57;;
2031;SDS011;27625;50.422;7.944;2022-07-06T06:39:10;6.07;;;3.70;;
2031;SDS011;27625;50.422;7.944;2022-07-06T06:41:36;6.50;;;3.90;;
2031;SDS011;27625;50.422;7.944;2022-07-06T06:44:03;6.83;;;3.90;;
2031;SDS011;27625;50.422;7.944;2022-07-06T06:46:29;7.10;;;3.57;;
2031;SDS011;27625;50.422;7.944;2022-07-06T06:48:56;6.80;;;3.80;;
2031;SDS011;27625;50.422;7.944;2022-07-06T06:56:02;4.83;;;3.20;;
2031;SDS011;27625;50.422;7.944;2022-07-06T06:58:28;7.47;;;3.20;;
2031;SDS011;27625;50.422;7.944;2022-07-06T07:00:54;4.70;;;3.10;;
2031;SDS011;27625;50.422;7.944;2022-07-06T07:03:21;5.57;;;3.60;;
2031;SDS011;27625;50.422;7.944;2022-07-06T07:05:47;4.73;;;3.30;;
2031;SDS011;27625;50.422;7.944;2022-07-06T07:08:14;4.90;;;3.50;;
2031;SDS011;27625;50.422;7.944;2022-07-06T07:10:40;7.67;;;4.20;;
2031;SDS011;27625;50.422;7.944;2022-07-06T07:13:08;5.30;;;3.57;;
2031;SDS011;27625;50.422;7.944;2022-07-06T07:15:35;4.33;;;3.40;;
2031;SDS011;27625;50.422;7.944;2022-07-06T07:18:01;8.43;;;4.10;;
2031;SDS011;27625;50.422;7.944;2022-07-06T07:20:28;5.40;;;4.30;;
2031;SDS011;27625;50.422;7.944;2022-07-06T07:22:55;6.93;;;4.00;;
2031;SDS011;27625;50.422;7.944;2022-07-06T07:25:22;5.60;;;4.10;;
2031;SDS011;27625;50.422;7.944;2022-07-06T07:27:49;10.10;;;4.00;;
2031;SDS011;27625;50.422;7.944;2022-07-06T07:30:16;6.40;;;4.47;;
2031;SDS011;27625;50.422;7.944;2022-07-06T07:32:43;7.13;;;4.47;;
2031;SDS011;27625;50.422;7.944;2022-07-06T07:35:09;6.90;;;4.47;;
2031;SDS011;27625;50.422;7.944;2022-07-06T07:37:36;6.03;;;4.97;;
2031;SDS011;27625;50.422;7.944;2022-07-06T07:40:03;5.87;;;5.20;;
2031;SDS011;27625;50.422;7.944;2022-07-06T07:42:31;5.07;;;4.57;;
2031;SDS011;27625;50.422;7.944;2022-07-06T07:44:57;5.13;;;4.20;;
2031;SDS011;27625;50.422;7.944;2022-07-06T07:47:25;5.57;;;4.67;;
2031;SDS011;27625;50.422;7.944;2022-07-06T07:49:52;5.97;;;4.37;;
2031;SDS011;27625;50.422;7.944;2022-07-06T07:52:18;5.87;;;3.80;;
2031;SDS011;27625;50.422;7.944;2022-07-06T07:54:45;6.77;;;4.17;;
2031;SDS011;27625;50.422;7.944;2022-07-06T07:57:11;6.20;;;3.97;;
2031;SDS011;27625;50.422;7.944;2022-07-06T07:59:38;9.43;;;4.60;;
2031;SDS011;27625;50.422;7.944;2022-07-06T08:02:04;6.60;;;3.93;;
2031;SDS011;27625;50.422;7.944;2022-07-06T08:04:34;5.37;;;3.40;;
2031;SDS011;27625;50.422;7.944;2022-07-06T08:07:01;7.90;;;3.83;;
2031;SDS011;27625;50.422;7.944;2022-07-06T08:09:28;5.33;;;3.43;;
2031;SDS011;27625;50.422;7.944;2022-07-06T08:11:54;5.03;;;2.93;;
2031;SDS011;27625;50.422;7.944;2022-07-06T08:14:21;9.70;;;3.30;;
2031;SDS011;27625;50.422;7.944;2022-07-06T08:16:48;6.20;;;3.37;;
2031;SDS011;27625;50.422;7.944;2022-07-06T08:19:14;5.50;;;3.13;;
2031;SDS011;27625;50.422;7.944;2022-07-06T08:21:42;4.43;;;3.00;;
2031;SDS011;27625;50.422;7.944;2022-07-06T08:24:09;4.10;;;3.13;;
2031;SDS011;27625;50.422;7.944;2022-07-06T08:26:36;4.57;;;3.13;;
2031;SDS011;27625;50.422;7.944;2022-07-06T08:29:03;5.97;;;2.80;;
2031;SDS011;27625;50.422;7.944;2022-07-06T08:31:30;4.63;;;3.07;;
2031;SDS011;27625;50.422;7.944;2022-07-06T08:33:59;5.10;;;2.90;;
2031;SDS011;27625;50.422;7.944;2022-07-06T08:36:26;5.70;;;2.70;;
2031;SDS011;27625;50.422;7.944;2022-07-06T08:38:55;4.80;;;2.80;;
2031;SDS011;27625;50.422;7.944;2022-07-06T08:41:22;4.97;;;2.77;;
2031;SDS011;27625;50.422;7.944;2022-07-06T08:43:50;4.57;;;2.80;;
2031;SDS011;27625;50.422;7.944;2022-07-06T08:46:17;4.47;;;3.00;;
2031;SDS011;27625;50.422;7.944;2022-07-06T08:48:45;3.97;;;2.43;;
2031;SDS011;27625;50.422;7.944;2022-07-06T08:51:12;3.33;;;2.60;;
2031;SDS011;27625;50.422;7.944;2022-07-06T08:53:40;4.47;;;2.63;;
2031;SDS011;27625;50.422;7.944;2022-07-06T08:56:08;6.63;;;2.60;;
2031;SDS011;27625;50.422;7.944;2022-07-06T08:58:35;3.40;;;2.37;;
2031;SDS011;27625;50.422;7.944;2022-07-06T09:01:06;3.50;;;2.40;;
2031;SDS011;27625;50.422;7.944;2022-07-06T09:03:32;4.80;;;2.70;;
2031;SDS011;27625;50.422;7.944;2022-07-06T09:06:00;5.90;;;2.80;;
2031;SDS011;27625;50.422;7.944;2022-07-06T09:08:28;5.63;;;4.00;;
2031;SDS011;27625;50.422;7.944;2022-07-06T09:10:57;6.30;;;4.10;;
2031;SDS011;27625;50.422;7.944;2022-07-06T09:13:25;5.80;;;3.00;;
2031;SDS011;27625;50.422;7.944;2022-07-06T09:15:51;4.63;;;2.90;;
2031;SDS011;27625;50.422;7.944;2022-07-06T09:18:18;4.80;;;2.80;;
2031;SDS011;27625;50.422;7.944;2022-07-06T09:20:47;6.40;;;3.53;;
2031;SDS011;27625;50.422;7.944;2022-07-06T09:23:15;4.50;;;2.83;;
2031;SDS011;27625;50.422;7.944;2022-07-06T09:25:42;5.10;;;2.93;;
2031;SDS011;27625;50.422;7.944;2022-07-06T09:28:13;4.93;;;2.90;;
2031;SDS011;27625;50.422;7.944;2022-07-06T09:30:41;3.50;;;2.70;;
2031;SDS011;27625;50.422;7.944;2022-07-06T09:33:08;4.80;;;2.90;;
2031;SDS011;27625;50.422;7.944;2022-07-06T09:35:37;5.83;;;2.50;;
2031;SDS011;27625;50.422;7.944;2022-07-06T09:38:05;4.33;;;2.73;;
2031;SDS011;27625;50.422;7.944;2022-07-06T09:40:34;4.13;;;2.43;;
2031;SDS011;27625;50.422;7.944;2022-07-06T09:43:11;4.00;;;2.50;;
2031;SDS011;27625;50.422;7.944;2022-07-06T09:45:40;3.90;;;2.70;;
2031;SDS011;27625;50.422;7.944;2022-07-06T09:48:08;3.40;;;2.60;;
2031;SDS011;27625;50.422;7.944;2022-07-06T09:50:40;4.93;;;2.87;;
2031;SDS011;27625;50.422;7.944;2022-07-06T09:53:08;5.53;;;2.50;;
2031;SDS011;27625;50.422;7.944;2022-07-06T09:55:36;4.50;;;2.60;;
2031;SDS011;27625;50.422;7.944;2022-07-06T09:58:02;5.80;;;3.27;;
2031;SDS011;27625;50.422;7.944;2022-07-06T10:00:29;4.63;;;2.50;;
2031;SDS011;27625;50.422;7.944;2022-07-06T10:02:57;5.87;;;2.70;;
2031;SDS011;27625;50.422;7.944;2022-07-06T10:05:24;9.20;;;2.63;;
2031;SDS011;27625;50.422;7.944;2022-07-06T10:07:55;4.30;;;2.20;;
2031;SDS011;27625;50.422;7.944;2022-07-06T10:10:25;6.27;;;2.97;;
2031;SDS011;27625;50.422;7.944;2022-07-06T10:12:52;4.47;;;2.50;;
2031;SDS011;27625;50.422;7.944;2022-07-06T10:15:21;4.83;;;2.87;;
2031;SDS011;27625;50.422;7.944;2022-07-06T10:17:48;4.90;;;2.70;;
2031;SDS011;27625;50.422;7.944;2022-07-06T10:20:17;3.40;;;2.63;;
2031;SDS011;27625;50.422;7.944;2022-07-06T10:22:44;4.80;;;2.60;;
2031;SDS011;27625;50.422;7.944;2022-07-06T10:25:11;5.30;;;2.87;;
2031;SDS011;27625;50.422;7.944;2022-07-06T10:27:37;3.60;;;2.60;;
2031;SDS011;27625;50.422;7.944;2022-07-06T10:30:04;6.30;;;2.73;;
2031;SDS011;27625;50.422;7.944;2022-07-06T10:32:32;5.10;;;2.47;;
2031;SDS011;27625;50.422;7.944;2022-07-06T10:34:58;4.93;;;2.83;;
2031;SDS011;27625;50.422;7.944;2022-07-06T10:37:27;6.30;;;3.17;;
2031;SDS011;27625;50.422;7.944;2022-07-06T10:39:54;3.73;;;2.60;;
2031;SDS011;27625;50.422;7.944;2022-07-06T10:42:38;3.87;;;2.87;;
2031;SDS011;27625;50.422;7.944;2022-07-06T10:45:06;4.37;;;2.60;;
2031;SDS011;27625;50.422;7.944;2022-07-06T10:47:33;4.27;;;2.70;;
2031;SDS011;27625;50.422;7.944;2022-07-06T10:50:01;5.23;;;2.97;;
2031;SDS011;27625;50.422;7.944;2022-07-06T10:55:28;5.27;;;2.97;;
2031;SDS011;27625;50.422;7.944;2022-07-06T10:57:58;6.20;;;3.33;;
2031;SDS011;27625;50.422;7.944;2022-07-06T11:00:25;5.67;;;2.83;;
2031;SDS011;27625;50.422;7.944;2022-07-06T11:02:51;4.43;;;3.07;;
2031;SDS011;27625;50.422;7.944;2022-07-06T11:08:09;7.90;;;3.13;;
2031;SDS011;27625;50.422;7.944;2022-07-06T11:10:48;7.60;;;2.70;;
2031;SDS011;27625;50.422;7.944;2022-07-06T11:13:25;5.70;;;2.90;;
2031;SDS011;27625;50.422;7.944;2022-07-06T11:16:00;3.90;;;2.57;;
2031;SDS011;27625;50.422;7.944;2022-07-06T11:18:27;4.67;;;3.40;;
2031;SDS011;27625;50.422;7.944;2022-07-06T11:23:44;3.87;;;2.60;;
2031;SDS011;27625;50.422;7.944;2022-07-06T11:26:12;5.97;;;4.17;;
2031;SDS011;27625;50.422;7.944;2022-07-06T11:28:39;4.53;;;3.03;;
2031;SDS011;27625;50.422;7.944;2022-07-06T11:31:05;3.87;;;2.97;;
2031;SDS011;27625;50.422;7.944;2022-07-06T11:33:32;6.27;;;2.50;;
2031;SDS011;27625;50.422;7.944;2022-07-06T11:36:12;3.73;;;2.50;;
2031;SDS011;27625;50.422;7.944;2022-07-06T11:38:39;4.60;;;2.80;;
2031;SDS011;27625;50.422;7.944;2022-07-06T11:41:07;5.37;;;2.43;;
2031;SDS011;27625;50.422;7.944;2022-07-06T11:43:33;4.70;;;2.30;;
2031;SDS011;27625;50.422;7.944;2022-07-06T11:46:00;4.10;;;2.23;;
2031;SDS011;27625;50.422;7.944;2022-07-06T11:48:26;4.43;;;2.10;;
2031;SDS011;27625;50.422;7.944;2022-07-06T11:50:59;2.93;;;2.10;;
2031;SDS011;27625;50.422;7.944;2022-07-06T11:53:27;3.70;;;2.13;;
2031;SDS011;27625;50.422;7.944;2022-07-06T11:55:54;3.53;;;2.30;;
2031;SDS011;27625;50.422;7.944;2022-07-06T11:58:22;7.97;;;2.23;;
2031;SDS011;27625;50.422;7.944;2022-07-06T12:01:05;7.90;;;2.80;;
2031;SDS011;27625;50.422;7.944;2022-07-06T12:03:32;4.30;;;2.23;;
2031;SDS011;27625;50.422;7.944;2022-07-06T12:06:00;3.87;;;2.17;;
2031;SDS011;27625;50.422;7.944;2022-07-06T12:08:27;3.40;;;2.10;;
2031;SDS011;27625;50.422;7.944;2022-07-06T12:10:54;3.37;;;2.33;;
2031;SDS011;27625;50.422;7.944;2022-07-06T12:13:22;4.53;;;2.20;;
2031;SDS011;27625;50.422;7.944;2022-07-06T12:15:48;4.67;;;2.27;;
2031;SDS011;27625;50.422;7.944;2022-07-06T12:18:15;5.27;;;2.17;;
2031;SDS011;27625;50.422;7.944;2022-07-06T12:20:41;3.87;;;2.23;;
2031;SDS011;27625;50.422;7.944;2022-07-06T12:23:08;4.60;;;1.90;;
2031;SDS011;27625;50.422;7.944;2022-07-06T12:25:35;4.70;;;2.30;;
2031;SDS011;27625;50.422;7.944;2022-07-06T12:28:02;5.93;;;2.43;;
2031;SDS011;27625;50.422;7.944;2022-07-06T12:30:31;4.17;;;2.83;;
2031;SDS011;27625;50.422;7.944;2022-07-06T12:33:10;3.50;;;2.00;;
2031;SDS011;27625;50.422;7.944;2022-07-06T12:35:38;3.20;;;2.10;;
2031;SDS011;27625;50.422;7.944;2022-07-06T12:38:05;3.60;;;2.23;;
2031;SDS011;27625;50.422;7.944;2022-07-06T12:40:31;3.37;;;2.30;;
2031;SDS011;27625;50.422;7.944;2022-07-06T12:42:58;5.83;;;2.40;;
2031;SDS011;27625;50.422;7.944;2022-07-06T12:45:26;3.20;;;1.80;;
2031;SDS011;27625;50.422;7.944;2022-07-06T12:48:04;3.63;;;2.13;;
2031;SDS011;27625;50.422;7.944;2022-07-06T12:50:31;3.67;;;2.20;;
2031;SDS011;27625;50.422;7.944;2022-07-06T12:52:59;4.43;;;2.30;;
2031;SDS011;27625;50.422;7.944;2022-07-06T12:55:26;3.20;;;1.87;;
2031;SDS011;27625;50.422;7.944;2022-07-06T12:57:53;4.07;;;2.00;;
2031;SDS011;27625;50.422;7.944;2022-07-06T13:00:20;3.37;;;1.90;;
2031;SDS011;27625;50.422;7.944;2022-07-06T13:02:47;4.37;;;2.23;;
2031;SDS011;27625;50.422;7.944;2022-07-06T13:05:23;3.77;;;2.07;;
2031;SDS011;27625;50.422;7.944;2022-07-06T13:07:52;3.57;;;1.83;;
2031;SDS011;27625;50.422;7.944;2022-07-06T13:10:20;3.70;;;2.33;;
2031;SDS011;27625;50.422;7.944;2022-07-06T13:12:47;3.50;;;2.13;;
2031;SDS011;27625;50.422;7.944;2022-07-06T13:15:14;5.33;;;2.20;;
2031;SDS011;27625;50.422;7.944;2022-07-06T13:17:41;4.30;;;2.77;;
2031;SDS011;27625;50.422;7.944;2022-07-06T13:20:09;5.33;;;2.00;;
2031;SDS011;27625;50.422;7.944;2022-07-06T13:22:38;4.93;;;2.27;;
2031;SDS011;27625;50.422;7.944;2022-07-06T13:25:05;4.50;;;2.20;;
2031;SDS011;27625;50.422;7.944;2022-07-06T13:27:32;5.43;;;2.07;;
2031;SDS011;27625;50.422;7.944;2022-07-06T13:29:59;3.73;;;2.30;;
2031;SDS011;27625;50.422;7.944;2022-07-06T13:32:26;3.67;;;2.40;;
2031;SDS011;27625;50.422;7.944;2022-07-06T13:34:52;6.30;;;2.90;;
2031;SDS011;27625;50.422;7.944;2022-07-06T13:37:18;3.97;;;3.00;;
2031;SDS011;27625;50.422;7.944;2022-07-06T13:39:47;4.50;;;2.97;;
2031;SDS011;27625;50.422;7.944;2022-07-06T13:42:14;7.37;;;3.10;;
2031;SDS011;27625;50.422;7.944;2022-07-06T13:44:40;4.80;;;3.20;;
2031;SDS011;27625;50.422;7.944;2022-07-06T13:47:08;6.40;;;3.43;;
2031;SDS011;27625;50.422;7.944;2022-07-06T13:49:34;4.03;;;3.10;;
2031;SDS011;27625;50.422;7.944;2022-07-06T13:52:01;4.67;;;3.10;;
2031;SDS011;27625;50.422;7.944;2022-07-06T13:54:29;3.50;;;2.80;;
2031;SDS011;27625;50.422;7.944;2022-07-06T13:56:57;6.77;;;3.37;;
2031;SDS011;27625;50.422;7.944;2022-07-06T13:59:23;8.20;;;3.50;;
2031;SDS011;27625;50.422;7.944;2022-07-06T14:01:50;4.50;;;3.30;;
2031;SDS011;27625;50.422;7.944;2022-07-06T14:04:16;4.40;;;2.73;;
2031;SDS011;27625;50.422;7.944;2022-07-06T14:06:43;5.37;;;3.43;;
2031;SDS011;27625;50.422;7.944;2022-07-06T14:09:09;5.57;;;2.93;;
2031;SDS011;27625;50.422;7.944;2022-07-06T14:11:36;4.73;;;2.90;;
2031;SDS011;27625;50.422;7.944;2022-07-06T14:14:04;4.70;;;3.00;;
2031;SDS011;27625;50.422;7.944;2022-07-06T14:16:32;4.33;;;2.80;;
2031;SDS011;27625;50.422;7.944;2022-07-06T14:19:00;7.00;;;2.90;;
2031;SDS011;27625;50.422;7.944;2022-07-06T14:21:26;4.80;;;2.80;;
2031;SDS011;27625;50.422;7.944;2022-07-06T14:23:53;5.07;;;2.70;;
2031;SDS011;27625;50.422;7.944;2022-07-06T14:26:19;5.23;;;2.50;;
2031;SDS011;27625;50.422;7.944;2022-07-06T14:28:46;4.43;;;2.77;;
2031;SDS011;27625;50.422;7.944;2022-07-06T14:31:14;4.00;;;2.50;;
2031;SDS011;27625;50.422;7.944;2022-07-06T14:33:40;3.90;;;2.80;;
2031;SDS011;27625;50.422;7.944;2022-07-06T14:36:07;6.90;;;3.00;;
2031;SDS011;27625;50.422;7.944;2022-07-06T14:38:33;4.13;;;2.63;;
2031;SDS011;27625;50.422;7.944;2022-07-06T14:41:00;12.73;;;2.77;;
2031;SDS011;27625;50.422;7.944;2022-07-06T14:43:26;3.57;;;2.30;;
2031;SDS011;27625;50.422;7.944;2022-07-06T14:45:53;4.40;;;2.57;;
2031;SDS011;27625;50.422;7.944;2022-07-06T14:48:21;2.93;;;2.20;;
2031;SDS011;27625;50.422;7.944;2022-07-06T14:50:48;6.40;;;2.83;;
2031;SDS011;27625;50.422;7.944;2022-07-06T14:53:15;10.97;;;3.20;;
2031;SDS011;27625;50.422;7.944;2022-07-06T14:55:41;3.80;;;2.33;;
2031;SDS011;27625;50.422;7.944;2022-07-06T14:58:08;6.73;;;3.20;;
2031;SDS011;27625;50.422;7.944;2022-07-06T15:00:34;5.90;;;2.70;;
2031;SDS011;27625;50.422;7.944;2022-07-06T15:03:01;8.13;;;2.70;;
2031;SDS011;27625;50.422;7.944;2022-07-06T15:05:29;4.07;;;2.43;;
2031;SDS011;27625;50.422;7.944;2022-07-06T15:07:55;5.50;;;2.50;;
2031;SDS011;27625;50.422;7.944;2022-07-06T15:10:22;18.13;;;12.37;;
2031;SDS011;27625;50.422;7.944;2022-07-06T15:12:48;7.30;;;4.90;;
2031;SDS011;27625;50.422;7.944;2022-07-06T15:15:15;7.20;;;2.77;;
2031;SDS011;27625;50.422;7.944;2022-07-06T15:17:41;3.70;;;2.60;;
2031;SDS011;27625;50.422;7.944;2022-07-06T15:20:08;3.93;;;2.67;;